createdAt,value
2023-09-17T00:01:50.785Z,11.88
2023-09-17T00:04:17.893Z,11.93
2023-09-17T00:06:44.828Z,11.05
2023-09-17T00:09:13.319Z,11.88
2023-09-17T00:11:40.261Z,11.23
2023-09-17T00:14:07.554Z,10.52
2023-09-17T00:16:34.570Z,10.43
2023-09-17T00:19:01.560Z,10.10
2023-09-17T00:21:28.485Z,9.32
2023-09-17T00:23:55.678Z,9.65
2023-09-17T00:26:23.995Z,8.50
2023-09-17T00:28:50.945Z,9.27
2023-09-17T00:31:18.004Z,9.30
2023-09-17T00:33:44.966Z,9.48
2023-09-17T00:36:13.020Z,8.68
2023-09-17T00:38:39.962Z,8.35
2023-09-17T00:41:07.216Z,9.38
2023-09-17T00:43:35.644Z,9.23
2023-09-17T00:46:03.025Z,8.70
2023-09-17T00:48:30.253Z,8.75
2023-09-17T00:50:57.315Z,8.43
2023-09-17T00:53:25.277Z,7.82
2023-09-17T00:55:53.014Z,8.27
2023-09-17T00:58:20.031Z,7.75
2023-09-17T01:00:48.373Z,7.45
2023-09-17T01:03:15.436Z,7.65
2023-09-17T01:05:43.931Z,7.85
2023-09-17T01:08:11.329Z,7.38
2023-09-17T01:10:39.067Z,7.72
2023-09-17T01:13:06.291Z,7.65
2023-09-17T01:15:33.340Z,7.78
2023-09-17T01:18:01.890Z,7.50
2023-09-17T01:20:34.099Z,8.32
2023-09-17T01:23:05.349Z,8.25
2023-09-17T01:25:41.174Z,8.55
2023-09-17T01:28:11.021Z,8.45
2023-09-17T01:30:38.115Z,8.63
2023-09-17T01:33:05.439Z,8.57
2023-09-17T01:35:33.720Z,9.15
2023-09-17T01:38:02.394Z,9.05
2023-09-17T01:40:29.960Z,9.30
2023-09-17T01:42:58.833Z,8.38
2023-09-17T01:45:28.332Z,8.43
2023-09-17T01:47:56.038Z,8.55
2023-09-17T01:50:23.666Z,8.63
2023-09-17T01:52:51.023Z,8.52
2023-09-17T01:55:18.017Z,8.23
2023-09-17T01:57:44.911Z,8.52
2023-09-17T02:00:12.910Z,8.50
2023-09-17T02:02:48.711Z,8.30
2023-09-17T02:05:22.722Z,7.88
2023-09-17T02:07:56.666Z,8.95
2023-09-17T02:10:23.670Z,8.13
2023-09-17T02:12:56.632Z,8.38
2023-09-17T02:15:23.559Z,8.55
2023-09-17T02:17:59.649Z,8.32
2023-09-17T02:20:26.591Z,8.60
2023-09-17T02:22:59.707Z,8.68
2023-09-17T02:25:26.598Z,8.30
2023-09-17T02:27:59.621Z,8.18
2023-09-17T02:30:26.590Z,7.97
2023-09-17T02:32:54.934Z,8.38
2023-09-17T02:35:28.668Z,8.98
2023-09-17T02:37:55.673Z,8.75
2023-09-17T02:40:24.905Z,8.27
2023-09-17T02:42:58.659Z,8.75
2023-09-17T02:45:25.709Z,8.45
2023-09-17T02:48:00.775Z,8.43
2023-09-17T02:50:27.706Z,8.45
2023-09-17T02:52:54.640Z,9.02
2023-09-17T02:55:28.695Z,8.73
2023-09-17T02:57:55.618Z,8.50
2023-09-17T03:00:22.519Z,7.85
2023-09-17T03:02:55.943Z,8.68
2023-09-17T03:05:30.692Z,8.48
2023-09-17T03:08:03.676Z,9.55
2023-09-17T03:10:30.644Z,9.30
2023-09-17T03:12:57.682Z,9.50
2023-09-17T03:15:31.648Z,9.27
2023-09-17T03:17:58.608Z,9.57
2023-09-17T03:20:27.947Z,8.80
2023-09-17T03:23:01.673Z,9.35
2023-09-17T03:25:28.689Z,8.57
2023-09-17T03:28:01.721Z,9.23
2023-09-17T03:30:29.064Z,8.88
2023-09-17T03:33:04.353Z,9.55
2023-09-17T03:35:40.730Z,9.30
2023-09-17T03:38:07.613Z,9.68
2023-09-17T03:40:41.795Z,10.02
2023-09-17T03:43:08.834Z,10.05
2023-09-17T03:45:35.747Z,9.40
2023-09-17T03:48:09.665Z,10.05
2023-09-17T03:50:37.917Z,10.43
2023-09-17T03:53:11.658Z,10.95
2023-09-17T03:55:38.614Z,10.80
2023-09-17T03:58:05.679Z,10.80
2023-09-17T04:00:39.685Z,10.07
2023-09-17T04:03:06.634Z,10.52
2023-09-17T04:05:40.646Z,10.90
2023-09-17T04:08:15.663Z,11.45
2023-09-17T04:10:49.731Z,11.20
2023-09-17T04:13:16.807Z,10.85
2023-09-17T04:15:43.747Z,11.13
2023-09-17T04:18:16.661Z,10.73
2023-09-17T04:20:43.586Z,10.70
2023-09-17T04:23:18.667Z,10.48
2023-09-17T04:25:45.585Z,11.68
2023-09-17T04:28:18.719Z,11.35
2023-09-17T04:30:45.669Z,11.30
2023-09-17T04:33:18.741Z,11.40
2023-09-17T04:35:45.698Z,14.43
2023-09-17T04:38:13.948Z,14.57
2023-09-17T04:40:47.716Z,16.17
2023-09-17T04:43:14.683Z,16.23
2023-09-17T04:45:41.664Z,17.58
2023-09-17T04:48:14.686Z,18.67
2023-09-17T04:50:48.360Z,20.75
2023-09-17T04:53:23.668Z,21.33
2023-09-17T04:55:56.710Z,21.55
2023-09-17T04:58:30.803Z,21.05
2023-09-17T05:01:04.666Z,20.33
2023-09-17T05:03:38.768Z,21.00
2023-09-17T05:06:12.682Z,22.55
2023-09-17T05:08:47.708Z,23.15
2023-09-17T05:11:20.683Z,24.48
2023-09-17T05:13:47.668Z,25.10
2023-09-17T05:16:20.756Z,27.67
2023-09-17T05:18:54.697Z,30.10
2023-09-17T05:21:27.696Z,29.30
2023-09-17T05:23:55.945Z,30.95
2023-09-17T05:26:22.884Z,31.30
2023-09-17T05:28:56.793Z,31.00
2023-09-17T05:31:30.806Z,31.75
2023-09-17T05:34:04.693Z,28.93
2023-09-17T05:36:37.673Z,29.63
2023-09-17T05:39:12.710Z,27.27
2023-09-17T05:41:39.573Z,26.77
2023-09-17T05:44:13.714Z,25.95
2023-09-17T05:46:40.663Z,25.30
2023-09-17T05:49:13.676Z,24.05
2023-09-17T05:51:46.725Z,23.60
2023-09-17T05:54:21.706Z,23.80
2023-09-17T05:56:48.593Z,22.30
2023-09-17T05:59:15.500Z,23.27
2023-09-17T06:01:48.803Z,22.75
2023-09-17T06:04:15.818Z,23.25
2023-09-17T06:06:42.738Z,22.70
2023-09-17T06:09:09.677Z,22.20
2023-09-17T06:11:37.977Z,21.98
2023-09-17T06:14:05.001Z,22.60
2023-09-17T06:16:42.346Z,23.52
2023-09-17T06:19:17.319Z,23.02
2023-09-17T06:21:45.281Z,22.52
2023-09-17T06:24:12.230Z,22.77
2023-09-17T06:26:40.525Z,22.63
2023-09-17T06:29:07.422Z,22.90
2023-09-17T06:31:34.504Z,21.80
2023-09-17T06:34:01.687Z,22.10
2023-09-17T06:36:29.514Z,21.92
2023-09-17T06:38:56.494Z,21.13
2023-09-17T06:41:23.421Z,21.23
2023-09-17T06:43:51.830Z,20.80
2023-09-17T06:46:19.115Z,20.40
2023-09-17T06:48:46.143Z,19.55
2023-09-17T06:51:13.021Z,19.20
2023-09-17T06:53:39.951Z,20.05
2023-09-17T06:56:07.030Z,19.85
2023-09-17T06:58:34.050Z,19.02
2023-09-17T07:01:02.494Z,18.80
2023-09-17T07:03:29.409Z,19.48
2023-09-17T07:05:56.299Z,18.67
2023-09-17T07:08:23.334Z,19.05
2023-09-17T07:10:50.300Z,18.50
2023-09-17T07:13:17.207Z,17.63
2023-09-17T07:15:45.373Z,18.40
2023-09-17T07:18:14.187Z,18.85
2023-09-17T07:20:41.346Z,18.17
2023-09-17T07:23:08.440Z,17.77
2023-09-17T07:25:35.466Z,18.35
2023-09-17T07:28:02.440Z,18.30
2023-09-17T07:30:29.365Z,17.45
2023-09-17T07:32:56.419Z,18.38
2023-09-17T07:35:25.375Z,18.70
2023-09-17T07:37:52.368Z,20.23
2023-09-17T07:40:19.389Z,22.05
2023-09-17T07:42:46.325Z,20.83
2023-09-17T07:45:13.232Z,20.67
2023-09-17T07:47:40.413Z,19.67
2023-09-17T07:50:08.236Z,17.85
2023-09-17T07:52:36.617Z,18.65
2023-09-17T07:55:03.858Z,19.13
2023-09-17T07:57:30.821Z,19.42
2023-09-17T07:59:57.991Z,22.92
2023-09-17T08:02:24.975Z,25.83
2023-09-17T08:04:51.912Z,26.45
2023-09-17T08:07:19.046Z,26.63
2023-09-17T08:09:47.322Z,28.83
2023-09-17T08:12:14.242Z,27.05
2023-09-17T08:14:46.033Z,26.85
2023-09-17T08:17:13.101Z,27.40
2023-09-17T08:19:40.043Z,25.67
2023-09-17T08:22:06.989Z,25.63
2023-09-17T08:24:33.920Z,23.42
2023-09-17T08:27:02.225Z,22.88
2023-09-17T08:29:29.170Z,22.52
2023-09-17T08:31:56.225Z,21.73
2023-09-17T08:34:23.269Z,19.88
2023-09-17T08:36:50.229Z,19.02
2023-09-17T08:39:17.184Z,19.48
2023-09-17T08:41:44.595Z,18.02
2023-09-17T08:44:13.885Z,17.38
2023-09-17T08:46:41.979Z,17.30
2023-09-17T08:49:08.994Z,15.25
2023-09-17T08:51:39.155Z,15.52
2023-09-17T08:54:11.148Z,14.02
2023-09-17T08:56:43.214Z,14.80
2023-09-17T08:59:14.249Z,15.50
2023-09-17T09:01:45.580Z,15.73
2023-09-17T09:04:14.736Z,15.60
2023-09-17T09:06:44.151Z,15.55
2023-09-17T09:09:11.742Z,14.20
2023-09-17T09:11:39.065Z,14.82
2023-09-17T09:14:07.016Z,13.93
2023-09-17T09:16:36.009Z,14.20
2023-09-17T09:19:03.371Z,14.63
2023-09-17T09:21:30.376Z,14.25
2023-09-17T09:23:57.475Z,13.10
2023-09-17T09:26:33.680Z,13.93
2023-09-17T09:29:00.844Z,13.82
2023-09-17T09:31:27.901Z,14.00
2023-09-17T09:33:57.336Z,14.73
2023-09-17T09:36:24.461Z,15.57
2023-09-17T09:38:51.555Z,15.45
2023-09-17T09:41:18.780Z,15.80
2023-09-17T09:43:45.820Z,15.95
2023-09-17T09:46:12.970Z,16.20
2023-09-17T09:48:40.738Z,16.17
2023-09-17T09:51:09.257Z,17.23
2023-09-17T09:53:36.252Z,16.33
2023-09-17T09:56:03.876Z,17.02
2023-09-17T09:58:31.183Z,16.85
2023-09-17T10:01:02.649Z,15.80
2023-09-17T10:03:29.624Z,14.77
2023-09-17T10:06:02.429Z,16.73
2023-09-17T10:08:31.321Z,17.20
2023-09-17T10:10:58.429Z,16.00
2023-09-17T10:13:25.535Z,14.48
2023-09-17T10:15:53.245Z,14.10
2023-09-17T10:18:22.017Z,12.57
2023-09-17T10:20:51.614Z,13.80
2023-09-17T10:23:20.134Z,13.80
2023-09-17T10:25:49.808Z,12.07
2023-09-17T10:28:17.650Z,12.15
2023-09-17T10:30:45.285Z,12.57
2023-09-17T10:33:15.491Z,13.02
2023-09-17T10:35:44.301Z,13.38
2023-09-17T10:38:12.899Z,13.98
2023-09-17T10:40:40.369Z,12.55
2023-09-17T10:43:08.924Z,14.23
2023-09-17T10:45:36.834Z,13.27
2023-09-17T10:48:04.994Z,13.38
2023-09-17T10:50:33.554Z,13.65
2023-09-17T10:53:00.518Z,13.68
2023-09-17T10:55:29.776Z,11.98
2023-09-17T10:58:04.455Z,11.88
2023-09-17T11:00:36.088Z,12.65
2023-09-17T11:03:06.474Z,10.57
2023-09-17T11:05:34.442Z,12.75
2023-09-17T11:08:06.007Z,12.35
2023-09-17T11:10:33.278Z,11.80
2023-09-17T11:13:00.842Z,11.77
2023-09-17T11:15:28.052Z,11.43
2023-09-17T11:18:00.479Z,12.98
2023-09-17T11:20:27.681Z,12.65
2023-09-17T11:22:54.677Z,12.00
2023-09-17T11:25:34.505Z,13.32
2023-09-17T11:28:09.098Z,13.27
2023-09-17T11:33:25.061Z,11.93
2023-09-17T11:35:53.115Z,12.30
2023-09-17T11:38:23.952Z,11.15
2023-09-17T11:41:02.791Z,11.60
2023-09-17T11:43:30.476Z,11.85
2023-09-17T11:45:57.691Z,10.50
2023-09-17T11:48:26.155Z,11.60
2023-09-17T11:50:53.430Z,9.38
2023-09-17T11:53:20.366Z,10.43
2023-09-17T11:55:47.419Z,9.52
2023-09-17T11:58:15.388Z,9.23
2023-09-17T12:00:42.578Z,9.73
2023-09-17T12:03:09.628Z,9.88
2023-09-17T12:05:38.194Z,9.63
2023-09-17T12:08:06.294Z,8.52
2023-09-17T12:10:33.587Z,9.57
2023-09-17T12:13:00.576Z,8.70
2023-09-17T12:15:27.684Z,8.27
2023-09-17T12:17:54.789Z,8.50
2023-09-17T12:20:38.133Z,10.55
2023-09-17T12:23:08.081Z,8.13
2023-09-17T12:25:43.139Z,8.13
2023-09-17T12:28:10.218Z,7.80
2023-09-17T12:30:37.261Z,7.80
2023-09-17T12:33:05.002Z,7.53
2023-09-17T12:35:32.062Z,7.43
2023-09-17T12:38:00.359Z,7.78
2023-09-17T12:40:28.148Z,7.15
2023-09-17T12:42:55.072Z,6.63
2023-09-17T12:45:22.149Z,6.95
2023-09-17T12:47:49.141Z,6.97
2023-09-17T12:50:18.288Z,7.00
2023-09-17T12:52:45.321Z,6.68
2023-09-17T12:55:14.450Z,6.35
2023-09-17T12:57:41.439Z,7.05
2023-09-17T13:00:09.938Z,6.28
2023-09-17T13:02:36.917Z,6.93
2023-09-17T13:05:04.391Z,6.70
2023-09-17T13:07:32.693Z,6.72
2023-09-17T13:10:01.741Z,5.97
2023-09-17T13:12:30.152Z,5.65
2023-09-17T13:14:58.226Z,5.45
2023-09-17T13:17:28.091Z,5.30
2023-09-17T13:19:56.670Z,4.60
2023-09-17T13:22:24.044Z,4.45
2023-09-17T13:24:51.072Z,5.38
2023-09-17T13:27:19.565Z,4.60
2023-09-17T13:29:51.439Z,5.35
2023-09-17T13:32:20.010Z,5.40
2023-09-17T13:34:47.913Z,5.07
2023-09-17T13:37:15.542Z,5.07
2023-09-17T13:39:43.931Z,5.03
2023-09-17T13:42:11.236Z,5.50
2023-09-17T13:44:38.445Z,5.72
2023-09-17T13:47:09.041Z,5.13
2023-09-17T13:49:36.006Z,5.32
2023-09-17T13:52:03.202Z,4.95
2023-09-17T13:54:30.212Z,5.43
2023-09-17T13:56:57.147Z,5.18
2023-09-17T13:59:24.061Z,5.10
2023-09-17T14:01:51.035Z,5.05
2023-09-17T14:04:19.648Z,5.10
2023-09-17T14:06:46.588Z,5.07
2023-09-17T14:09:13.602Z,5.18
2023-09-17T14:11:40.502Z,4.93
2023-09-17T14:14:07.426Z,5.00
2023-09-17T14:16:34.423Z,5.00
2023-09-17T14:19:01.315Z,5.10
2023-09-17T14:21:29.696Z,4.80
2023-09-17T14:23:56.619Z,4.70
2023-09-17T14:26:23.570Z,4.28
2023-09-17T14:28:50.964Z,4.32
2023-09-17T14:31:18.099Z,3.95
2023-09-17T14:33:45.097Z,4.13
2023-09-17T14:36:12.038Z,3.80
2023-09-17T14:38:40.306Z,4.20
2023-09-17T14:41:07.283Z,4.40
2023-09-17T14:43:40.525Z,3.72
2023-09-17T14:46:07.895Z,4.47
2023-09-17T14:48:34.881Z,4.20
2023-09-17T14:51:01.884Z,4.40
2023-09-17T14:53:28.836Z,4.55
2023-09-17T14:55:57.120Z,4.50
2023-09-17T14:58:24.102Z,4.38
2023-09-17T15:00:51.162Z,3.78
2023-09-17T15:03:18.333Z,4.10
2023-09-17T15:05:45.362Z,4.15
2023-09-17T15:08:12.317Z,3.97
2023-09-17T15:10:39.310Z,4.38
2023-09-17T15:13:07.571Z,4.78
2023-09-17T15:15:34.457Z,4.47
2023-09-17T15:18:01.359Z,4.40
2023-09-17T15:20:29.246Z,4.50
2023-09-17T15:22:56.202Z,4.20
2023-09-17T15:25:29.460Z,4.68
2023-09-17T15:27:56.610Z,4.72
2023-09-17T15:30:24.948Z,4.80
2023-09-17T15:32:51.971Z,4.60
2023-09-17T15:35:20.804Z,4.65
2023-09-17T15:37:48.370Z,4.53
2023-09-17T15:40:15.543Z,4.35
2023-09-17T15:42:42.591Z,4.40
2023-09-17T15:45:09.885Z,4.40
2023-09-17T15:47:38.343Z,4.70
2023-09-17T15:50:06.382Z,4.53
2023-09-17T15:52:33.297Z,4.38
2023-09-17T15:55:00.269Z,4.40
2023-09-17T15:57:27.170Z,4.25
2023-09-17T15:59:54.069Z,4.53
2023-09-17T16:02:21.266Z,4.47
2023-09-17T16:04:49.883Z,4.57
2023-09-17T16:07:16.850Z,3.92
2023-09-17T16:09:43.719Z,4.07
2023-09-17T16:12:10.728Z,4.10
2023-09-17T16:14:37.680Z,4.15
2023-09-17T16:17:04.880Z,4.32
2023-09-17T16:19:31.873Z,4.30
2023-09-17T16:22:00.166Z,3.80
2023-09-17T16:24:27.084Z,3.80
2023-09-17T16:27:00.528Z,3.53
2023-09-17T16:29:27.452Z,4.07
2023-09-17T16:31:54.384Z,3.90
2023-09-17T16:34:21.374Z,3.92
2023-09-17T16:36:48.309Z,3.92
2023-09-17T16:39:16.587Z,4.03
2023-09-17T16:41:43.598Z,3.97
2023-09-17T16:44:10.582Z,3.80
2023-09-17T16:46:37.539Z,3.80
2023-09-17T16:49:04.493Z,4.00
2023-09-17T16:51:31.387Z,4.03
2023-09-17T16:53:58.269Z,3.75
2023-09-17T16:56:26.580Z,3.45
2023-09-17T16:58:53.624Z,3.55
2023-09-17T17:01:20.828Z,3.72
2023-09-17T17:03:47.885Z,3.72
2023-09-17T17:06:15.044Z,3.80
2023-09-17T17:08:41.987Z,3.80
2023-09-17T17:11:09.010Z,3.75
2023-09-17T17:13:37.285Z,3.85
2023-09-17T17:16:04.219Z,4.20
2023-09-17T17:18:31.194Z,3.80
2023-09-17T17:20:58.371Z,3.83
2023-09-17T17:23:25.331Z,3.72
2023-09-17T17:25:58.637Z,3.85
2023-09-17T17:28:27.652Z,3.80
2023-09-17T17:30:57.370Z,3.72
2023-09-17T17:33:24.337Z,3.80
2023-09-17T17:35:51.226Z,3.80
2023-09-17T17:38:18.240Z,3.78
2023-09-17T17:40:45.301Z,4.05
2023-09-17T17:43:12.262Z,3.97
2023-09-17T17:45:39.365Z,4.10
2023-09-17T17:48:07.804Z,4.35
2023-09-17T17:50:35.026Z,3.75
2023-09-17T17:53:01.992Z,4.22
2023-09-17T17:55:28.908Z,4.75
2023-09-17T17:57:56.025Z,4.10
2023-09-17T18:00:23.068Z,4.13
2023-09-17T18:02:50.238Z,3.83
2023-09-17T18:05:18.767Z,4.00
2023-09-17T18:07:45.973Z,3.83
2023-09-17T18:10:13.240Z,4.25
2023-09-17T18:12:40.488Z,4.40
2023-09-17T18:15:09.393Z,3.80
2023-09-17T18:17:36.516Z,4.35
2023-09-17T18:20:03.976Z,4.18
2023-09-17T18:22:32.440Z,4.22
2023-09-17T18:24:59.338Z,3.65
2023-09-17T18:27:32.625Z,4.70
2023-09-17T18:29:59.501Z,4.18
2023-09-17T18:32:26.437Z,4.60
2023-09-17T18:34:53.533Z,4.10
2023-09-17T18:37:20.466Z,3.90
2023-09-17T18:39:48.912Z,4.00
2023-09-17T18:42:15.882Z,6.38
2023-09-17T18:44:42.867Z,6.60
2023-09-17T18:47:09.826Z,6.50
2023-09-17T18:49:36.761Z,5.50
2023-09-17T18:52:04.086Z,4.70
2023-09-17T18:54:31.011Z,4.70
2023-09-17T18:56:59.255Z,5.20
2023-09-17T18:59:26.322Z,4.72
2023-09-17T19:01:53.368Z,4.95
2023-09-17T19:04:21.250Z,5.20
2023-09-17T19:06:48.372Z,5.20
2023-09-17T19:09:15.299Z,5.05
2023-09-17T19:11:42.270Z,5.50
2023-09-17T19:14:10.625Z,5.30
2023-09-17T19:16:37.548Z,5.45
2023-09-17T19:19:04.805Z,5.82
2023-09-17T19:21:31.819Z,5.28
2023-09-17T19:23:58.836Z,4.97
2023-09-17T19:26:32.690Z,4.78
2023-09-17T19:28:59.687Z,5.43
2023-09-17T19:31:27.937Z,5.63
2023-09-17T19:33:54.884Z,5.82
2023-09-17T19:36:21.813Z,5.80
2023-09-17T19:38:48.785Z,6.22
2023-09-17T19:41:15.721Z,5.93
2023-09-17T19:43:42.688Z,5.72
2023-09-17T19:46:09.719Z,5.55
2023-09-17T19:48:38.402Z,5.32
2023-09-17T19:51:08.767Z,6.03
2023-09-17T19:53:35.670Z,5.55
2023-09-17T19:56:02.767Z,5.57
2023-09-17T19:58:29.654Z,5.65
2023-09-17T20:00:56.730Z,4.95
2023-09-17T20:03:23.838Z,4.78
2023-09-17T20:05:52.263Z,5.07
2023-09-17T20:08:19.443Z,5.05
2023-09-17T20:10:46.443Z,5.35
2023-09-17T20:13:13.428Z,5.53
2023-09-17T20:15:40.390Z,5.13
2023-09-17T20:18:07.460Z,5.72
2023-09-17T20:20:34.536Z,5.13
2023-09-17T20:23:02.911Z,5.95
2023-09-17T20:25:29.974Z,6.40
2023-09-17T20:28:03.784Z,5.90
2023-09-17T20:30:30.719Z,6.10
2023-09-17T20:32:58.106Z,6.35
2023-09-17T20:35:25.627Z,5.30
2023-09-17T20:37:52.709Z,6.25
2023-09-17T20:40:21.086Z,5.50
2023-09-17T20:42:48.418Z,6.43
2023-09-17T20:45:15.404Z,6.00
2023-09-17T20:47:42.421Z,6.25
2023-09-17T20:50:09.949Z,5.80
2023-09-17T20:52:37.464Z,5.70
2023-09-17T20:55:05.055Z,6.43
2023-09-17T20:57:33.336Z,6.18
2023-09-17T21:00:00.948Z,6.22
2023-09-17T21:02:28.265Z,5.97
2023-09-17T21:04:56.454Z,6.22
2023-09-17T21:07:23.447Z,6.50
2023-09-17T21:09:50.661Z,5.93
2023-09-17T21:12:17.711Z,5.90
2023-09-17T21:14:45.935Z,6.15
2023-09-17T21:17:12.971Z,6.70
2023-09-17T21:19:40.005Z,6.32
2023-09-17T21:22:08.417Z,6.07
2023-09-17T21:24:35.545Z,6.18
2023-09-17T21:27:08.647Z,6.38
2023-09-17T21:29:35.975Z,6.15
2023-09-17T21:32:05.297Z,6.53
2023-09-17T21:34:32.338Z,5.97
2023-09-17T21:36:59.227Z,6.72
2023-09-17T21:39:26.221Z,6.18
2023-09-17T21:41:53.168Z,6.45
2023-09-17T21:44:20.119Z,6.63
2023-09-17T21:46:47.087Z,6.70
2023-09-17T21:49:15.344Z,6.90
2023-09-17T21:51:42.367Z,6.78
2023-09-17T21:54:09.259Z,7.40
2023-09-17T21:56:36.235Z,6.65
2023-09-17T21:59:03.303Z,6.75
2023-09-17T22:01:31.634Z,7.13
2023-09-17T22:03:58.570Z,6.93
2023-09-17T22:06:26.867Z,6.63
2023-09-17T22:08:53.998Z,7.00
2023-09-17T22:11:21.133Z,6.50
2023-09-17T22:13:48.113Z,6.38
2023-09-17T22:16:15.087Z,6.53
2023-09-17T22:18:42.010Z,7.15
2023-09-17T22:21:09.359Z,6.70
2023-09-17T22:23:37.642Z,7.00
2023-09-17T22:26:10.812Z,6.57
2023-09-17T22:28:37.728Z,6.97
2023-09-17T22:31:11.742Z,6.70
2023-09-17T22:33:38.806Z,6.68
2023-09-17T22:36:07.512Z,7.15
2023-09-17T22:38:36.178Z,7.00
2023-09-17T22:41:04.455Z,6.95
2023-09-17T22:43:31.368Z,7.30
2023-09-17T22:45:58.337Z,7.95
2023-09-17T22:48:25.408Z,7.32
2023-09-17T22:50:52.554Z,6.50
2023-09-17T22:53:19.549Z,7.68
2023-09-17T22:55:46.456Z,7.47
2023-09-17T22:58:14.973Z,7.47
2023-09-17T23:00:43.466Z,7.43
2023-09-17T23:03:10.465Z,9.10
2023-09-17T23:05:37.462Z,7.60
2023-09-17T23:08:04.950Z,7.32
2023-09-17T23:10:31.956Z,7.53
2023-09-17T23:12:59.089Z,7.97
2023-09-17T23:15:28.604Z,6.72
2023-09-17T23:17:55.582Z,6.80
2023-09-17T23:20:22.551Z,7.47
2023-09-17T23:22:49.568Z,6.80
2023-09-17T23:25:16.668Z,7.10
2023-09-17T23:27:49.692Z,7.20
2023-09-17T23:30:17.376Z,7.10
2023-09-17T23:32:45.699Z,7.05
2023-09-17T23:35:12.628Z,7.38
2023-09-17T23:37:39.560Z,8.25
2023-09-17T23:40:07.858Z,8.48
2023-09-17T23:42:34.881Z,8.43
2023-09-17T23:45:01.797Z,8.25
2023-09-17T23:47:28.941Z,7.80
2023-09-17T23:49:57.307Z,8.02
2023-09-17T23:52:24.312Z,7.82
2023-09-17T23:54:51.328Z,8.57
2023-09-17T23:57:18.239Z,7.93
2023-09-17T23:59:45.104Z,8.45
